sensor_id;sensor_type;location;lat;lon;timestamp;pressure;altitude;pressure_sealevel;temperature;humidity
11212;BME280;5663;50.864;12.096;2023-02-28T00:01:25;100661.00;;;1.30;68.09
11212;BME280;5663;50.864;12.096;2023-02-28T00:03:53;100667.00;;;1.32;68.24
11212;BME280;5663;50.864;12.096;2023-02-28T00:06:21;100642.16;;;1.20;68.18
11212;BME280;5663;50.864;12.096;2023-02-28T00:08:50;100669.56;;;1.33;68.07
11212;BME280;5663;50.864;12.096;2023-02-28T00:11:17;100660.16;;;1.32;68.09
11212;BME280;5663;50.864;12.096;2023-02-28T00:13:46;100667.84;;;1.32;68.24
11212;BME280;5663;50.864;12.096;2023-02-28T00:16:17;100662.72;;;1.32;68.08
11212;BME280;5663;50.864;12.096;2023-02-28T00:18:46;100661.00;;;1.31;68.08
11212;BME280;5663;50.864;12.096;2023-02-28T00:21:15;100638.69;;;1.18;68.18
11212;BME280;5663;50.864;12.096;2023-02-28T00:23:43;100660.16;;;1.32;68.36
11212;BME280;5663;50.864;12.096;2023-02-28T00:26:11;100657.53;;;1.28;68.16
11212;BME280;5663;50.864;12.096;2023-02-28T00:28:39;100648.16;;;1.27;68.36
11212;BME280;5663;50.864;12.096;2023-02-28T00:31:07;100652.44;;;1.29;68.35
11212;BME280;5663;50.864;12.096;2023-02-28T00:33:35;100645.59;;;1.25;68.34
11212;BME280;5663;50.864;12.096;2023-02-28T00:36:10;100649.00;;;1.27;68.39
11212;BME280;5663;50.864;12.096;2023-02-28T00:38:40;100650.75;;;1.28;68.52
11212;BME280;5663;50.864;12.096;2023-02-28T00:41:08;100656.72;;;1.29;68.45
11212;BME280;5663;50.864;12.096;2023-02-28T00:43:38;100649.88;;;1.26;68.59
11212;BME280;5663;50.864;12.096;2023-02-28T00:46:07;100650.75;;;1.28;68.45
11212;BME280;5663;50.864;12.096;2023-02-28T00:48:35;100647.28;;;1.26;68.37
11212;BME280;5663;50.864;12.096;2023-02-28T00:51:03;100652.44;;;1.29;68.39
11212;BME280;5663;50.864;12.096;2023-02-28T00:53:33;100609.53;;;1.01;68.25
11212;BME280;5663;50.864;12.096;2023-02-28T00:56:02;100643.06;;;1.28;68.37
11212;BME280;5663;50.864;12.096;2023-02-28T00:58:30;100649.00;;;1.27;68.37
11212;BME280;5663;50.864;12.096;2023-02-28T01:00:58;100642.13;;;1.23;68.37
11212;BME280;5663;50.864;12.096;2023-02-28T01:03:25;100633.53;;;1.15;68.36
11212;BME280;5663;50.864;12.096;2023-02-28T01:05:53;100646.41;;;1.21;68.62
11212;BME280;5663;50.864;12.096;2023-02-28T01:08:22;100650.66;;;1.19;68.49
11212;BME280;5663;50.864;12.096;2023-02-28T01:10:51;100642.94;;;1.13;68.43
11212;BME280;5663;50.864;12.096;2023-02-28T01:13:19;100602.59;;;0.87;68.59
11212;BME280;5663;50.864;12.096;2023-02-28T01:15:50;100636.06;;;1.10;68.43
11212;BME280;5663;50.864;12.096;2023-02-28T01:18:18;100634.31;;;1.03;68.34
11212;BME280;5663;50.864;12.096;2023-02-28T01:20:46;100641.16;;;1.07;68.45
11212;BME280;5663;50.864;12.096;2023-02-28T01:23:14;100636.03;;;1.06;68.58
11212;BME280;5663;50.864;12.096;2023-02-28T01:25:43;100628.31;;;1.03;68.25
11212;BME280;5663;50.864;12.096;2023-02-28T01:28:12;100605.13;;;0.87;68.41
11212;BME280;5663;50.864;12.096;2023-02-28T01:30:39;100633.41;;;0.99;68.46
11212;BME280;5663;50.864;12.096;2023-02-28T01:33:07;100631.66;;;0.95;68.38
11212;BME280;5663;50.864;12.096;2023-02-28T01:35:35;100635.97;;;0.96;68.26
11212;BME280;5663;50.864;12.096;2023-02-28T01:38:03;100631.66;;;0.95;68.15
11212;BME280;5663;50.864;12.096;2023-02-28T01:47:26;100633.31;;;0.87;68.44
11212;BME280;5663;50.864;12.096;2023-02-28T01:49:54;100587.91;;;0.65;68.28
11212;BME280;5663;50.864;12.096;2023-02-28T01:52:22;100622.22;;;0.87;68.39
11212;BME280;5663;50.864;12.096;2023-02-28T01:54:52;100614.50;;;0.82;68.33
11212;BME280;5663;50.864;12.096;2023-02-28T01:57:24;100622.19;;;0.84;68.48
11212;BME280;5663;50.864;12.096;2023-02-28T01:59:57;100621.31;;;0.80;68.61
11212;BME280;5663;50.864;12.096;2023-02-28T02:02:29;100623.00;;;0.78;68.69
11212;BME280;5663;50.864;12.096;2023-02-28T02:05:33;100621.28;;;0.77;68.63
11212;BME280;5663;50.864;12.096;2023-02-28T02:08:05;100618.69;;;0.76;68.63
11212;BME280;5663;50.864;12.096;2023-02-28T02:10:36;100602.44;;;0.69;68.67
11212;BME280;5663;50.864;12.096;2023-02-28T02:13:29;100607.59;;;0.72;68.48
11212;BME280;5663;50.864;12.096;2023-02-28T02:16:12;100581.81;;;0.54;68.56
11212;BME280;5663;50.864;12.096;2023-02-28T02:18:44;100606.72;;;0.68;68.66
11212;BME280;5663;50.864;12.096;2023-02-28T02:21:40;100605.84;;;0.68;68.63
11212;BME280;5663;50.864;12.096;2023-02-28T02:24:50;100604.09;;;0.65;68.40
11212;BME280;5663;50.864;12.096;2023-02-28T02:27:40;100610.94;;;0.65;68.41
11212;BME280;5663;50.864;12.096;2023-02-28T02:33:42;100597.25;;;0.63;68.28
11212;BME280;5663;50.864;12.096;2023-02-28T02:36:19;100596.41;;;0.62;68.59
11212;BME280;5663;50.864;12.096;2023-02-28T02:38:52;100602.38;;;0.63;68.74
11212;BME280;5663;50.864;12.096;2023-02-28T02:41:27;100604.06;;;0.61;68.61
11212;BME280;5663;50.864;12.096;2023-02-28T02:44:03;100599.78;;;0.58;68.54
11212;BME280;5663;50.864;12.096;2023-02-28T02:46:33;100600.66;;;0.62;68.78
11212;BME280;5663;50.864;12.096;2023-02-28T02:49:06;100613.47;;;0.60;69.02
11212;BME280;5663;50.864;12.096;2023-02-28T02:51:38;100583.41;;;0.42;68.83
11212;BME280;5663;50.864;12.096;2023-02-28T02:54:11;100597.13;;;0.51;68.90
11212;BME280;5663;50.864;12.096;2023-02-28T02:56:43;100612.56;;;0.60;69.10
11212;BME280;5663;50.864;12.096;2023-02-28T02:59:13;100606.59;;;0.59;68.93
11212;BME280;5663;50.864;12.096;2023-02-28T03:01:49;100613.47;;;0.60;69.51
11212;BME280;5663;50.864;12.096;2023-02-28T03:04:19;100610.91;;;0.60;69.42
11212;BME280;5663;50.864;12.096;2023-02-28T03:06:50;100588.56;;;0.45;69.42
11212;BME280;5663;50.864;12.096;2023-02-28T03:09:21;100610.91;;;0.62;69.34
11212;BME280;5663;50.864;12.096;2023-02-28T03:11:51;100615.16;;;0.63;69.27
11212;BME280;5663;50.864;12.096;2023-02-28T03:14:26;100616.06;;;0.65;69.28
11212;BME280;5663;50.864;12.096;2023-02-28T03:17:03;100611.75;;;0.64;69.30
11212;BME280;5663;50.864;12.096;2023-02-28T03:19:50;100610.00;;;0.60;69.30
11212;BME280;5663;50.864;12.096;2023-02-28T03:22:33;100609.19;;;0.64;69.30
11212;BME280;5663;50.864;12.096;2023-02-28T03:25:08;100617.75;;;0.66;69.21
11212;BME280;5663;50.864;12.096;2023-02-28T03:27:42;100621.22;;;0.68;69.34
11212;BME280;5663;50.864;12.096;2023-02-28T03:30:18;100622.88;;;0.66;69.10
11212;BME280;5663;50.864;12.096;2023-02-28T03:32:54;100619.44;;;0.64;69.26
11212;BME280;5663;50.864;12.096;2023-02-28T03:35:26;100617.75;;;0.66;69.28
11212;BME280;5663;50.864;12.096;2023-02-28T03:38:01;100615.19;;;0.67;69.09
11212;BME280;5663;50.864;12.096;2023-02-28T03:40:33;100611.75;;;0.61;69.34
11212;BME280;5663;50.864;12.096;2023-02-28T03:43:08;100616.06;;;0.65;69.07
11212;BME280;5663;50.864;12.096;2023-02-28T03:45:39;100621.19;;;0.65;69.20
11212;BME280;5663;50.864;12.096;2023-02-28T03:48:13;100613.47;;;0.63;69.08
11212;BME280;5663;50.864;12.096;2023-02-28T03:50:46;100617.72;;;0.63;69.06
11212;BME280;5663;50.864;12.096;2023-02-28T03:53:20;100610.00;;;0.58;69.16
11212;BME280;5663;50.864;12.096;2023-02-28T03:55:51;100618.53;;;0.57;69.14
11212;BME280;5663;50.864;12.096;2023-02-28T03:58:26;100610.81;;;0.54;69.30
11212;BME280;5663;50.864;12.096;2023-02-28T04:01:00;100611.63;;;0.52;68.92
11212;BME280;5663;50.864;12.096;2023-02-28T04:03:35;100612.50;;;0.51;69.19
11212;BME280;5663;50.864;12.096;2023-02-28T04:06:04;100581.56;;;0.29;69.05
11212;BME280;5663;50.864;12.096;2023-02-28T04:08:34;100619.28;;;0.45;69.05
11212;BME280;5663;50.864;12.096;2023-02-28T04:11:04;100617.53;;;0.41;69.29
11212;BME280;5663;50.864;12.096;2023-02-28T04:13:34;100624.31;;;0.39;69.06
11212;BME280;5663;50.864;12.096;2023-02-28T04:16:01;100621.75;;;0.38;69.03
11212;BME280;5663;50.864;12.096;2023-02-28T04:18:38;100621.66;;;0.32;68.85
11212;BME280;5663;50.864;12.096;2023-02-28T04:21:06;100625.03;;;0.28;69.04
11212;BME280;5663;50.864;12.096;2023-02-28T04:23:35;100620.72;;;0.22;68.94
11212;BME280;5663;50.864;12.096;2023-02-28T04:26:04;100627.53;;;0.23;69.36
11212;BME280;5663;50.864;12.096;2023-02-28T04:28:32;100617.22;;;0.14;69.08
11212;BME280;5663;50.864;12.096;2023-02-28T04:31:02;100634.31;;;0.16;69.52
11212;BME280;5663;50.864;12.096;2023-02-28T04:33:31;100630.84;;;0.13;69.19
11212;BME280;5663;50.864;12.096;2023-02-28T04:36:01;100520.91;;;-0.59;69.01
11212;BME280;5663;50.864;12.096;2023-02-28T04:38:29;100640.19;;;0.09;69.18
11212;BME280;5663;50.864;12.096;2023-02-28T04:40:59;100651.22;;;0.07;69.08
11212;BME280;5663;50.864;12.096;2023-02-28T04:43:27;100643.53;;;0.05;69.15
11212;BME280;5663;50.864;12.096;2023-02-28T04:45:56;100637.53;;;0.02;69.09
11212;BME280;5663;50.864;12.096;2023-02-28T04:48:25;100603.09;;;-0.27;68.96
11212;BME280;5663;50.864;12.096;2023-02-28T04:50:53;100611.63;;;-0.26;69.13
11212;BME280;5663;50.864;12.096;2023-02-28T04:53:21;100615.03;;;-0.27;68.85
11212;BME280;5663;50.864;12.096;2023-02-28T04:55:49;100651.00;;;-0.12;69.13
11212;BME280;5663;50.864;12.096;2023-02-28T04:58:18;100647.56;;;-0.14;68.94
11212;BME280;5663;50.864;12.096;2023-02-28T05:00:45;100649.25;;;-0.14;69.24
11212;BME280;5663;50.864;12.096;2023-02-28T05:03:13;100650.91;;;-0.18;68.92
11212;BME280;5663;50.864;12.096;2023-02-28T05:05:41;100637.22;;;-0.23;69.35
11212;BME280;5663;50.864;12.096;2023-02-28T05:08:09;100657.66;;;-0.23;69.18
11212;BME280;5663;50.864;12.096;2023-02-28T05:10:37;100649.06;;;-0.28;69.01
11212;BME280;5663;50.864;12.096;2023-02-28T05:13:05;100652.47;;;-0.29;69.18
11212;BME280;5663;50.864;12.096;2023-02-28T05:15:34;100654.16;;;-0.31;69.03
11212;BME280;5663;50.864;12.096;2023-02-28T05:18:02;100655.81;;;-0.33;69.03
11212;BME280;5663;50.864;12.096;2023-02-28T05:20:30;100657.47;;;-0.37;69.04
11212;BME280;5663;50.864;12.096;2023-02-28T05:22:58;100656.53;;;-0.43;69.04
11212;BME280;5663;50.864;12.096;2023-02-28T05:25:27;100654.78;;;-0.47;69.39
11212;BME280;5663;50.864;12.096;2023-02-28T05:27:55;100654.72;;;-0.49;69.05
11212;BME280;5663;50.864;12.096;2023-02-28T05:30:22;100658.94;;;-0.53;69.21
11212;BME280;5663;50.864;12.096;2023-02-28T05:32:51;100658.84;;;-0.59;68.85
11212;BME280;5663;50.864;12.096;2023-02-28T05:35:19;100656.19;;;-0.65;69.21
11212;BME280;5663;50.864;12.096;2023-02-28T05:37:46;100662.16;;;-0.66;69.40
11212;BME280;5663;50.864;12.096;2023-02-28T05:40:14;100663.00;;;-0.65;68.92
11212;BME280;5663;50.864;12.096;2023-02-28T05:42:42;100658.69;;;-0.68;69.09
11212;BME280;5663;50.864;12.096;2023-02-28T05:45:10;100655.28;;;-0.70;68.87
11212;BME280;5663;50.864;12.096;2023-02-28T05:47:40;100666.28;;;-0.76;69.17
11212;BME280;5663;50.864;12.096;2023-02-28T05:50:10;100662.81;;;-0.79;69.26
11212;BME280;5663;50.864;12.096;2023-02-28T05:52:38;100661.06;;;-0.82;68.95
11212;BME280;5663;50.864;12.096;2023-02-28T05:55:06;100669.59;;;-0.80;69.44
11212;BME280;5663;50.864;12.096;2023-02-28T05:57:34;100666.16;;;-0.83;69.16
11212;BME280;5663;50.864;12.096;2023-02-28T06:00:06;100665.25;;;-0.85;69.31
11212;BME280;5663;50.864;12.096;2023-02-28T06:02:34;100670.47;;;-0.79;69.21
11212;BME280;5663;50.864;12.096;2023-02-28T06:05:02;100675.59;;;-0.76;69.24
11212;BME280;5663;50.864;12.096;2023-02-28T06:07:31;100679.91;;;-0.75;69.31
11212;BME280;5663;50.864;12.096;2023-02-28T06:09:58;100685.03;;;-0.72;68.93
11212;BME280;5663;50.864;12.096;2023-02-28T06:12:26;100681.72;;;-0.66;68.93
11212;BME280;5663;50.864;12.096;2023-02-28T06:14:54;100680.03;;;-0.66;69.08
11212;BME280;5663;50.864;12.096;2023-02-28T06:17:21;100679.31;;;-0.59;69.01
11212;BME280;5663;50.864;12.096;2023-02-28T06:19:49;100686.19;;;-0.53;69.46
11212;BME280;5663;50.864;12.096;2023-02-28T06:22:17;100685.31;;;-0.54;69.58
11212;BME280;5663;50.864;12.096;2023-02-28T06:24:46;100689.66;;;-0.50;69.45
11212;BME280;5663;50.864;12.096;2023-02-28T06:27:14;100690.56;;;-0.44;69.74
11212;BME280;5663;50.864;12.096;2023-02-28T06:29:41;100693.22;;;-0.38;69.38
11212;BME280;5663;50.864;12.096;2023-02-28T06:32:09;100689.03;;;-0.35;69.50
11212;BME280;5663;50.864;12.096;2023-02-28T06:34:37;100696.75;;;-0.29;69.53
11212;BME280;5663;50.864;12.096;2023-02-28T06:37:04;100698.56;;;-0.23;69.60
11212;BME280;5663;50.864;12.096;2023-02-28T06:39:32;100705.50;;;-0.16;69.53
11212;BME280;5663;50.864;12.096;2023-02-28T06:42:02;100699.59;;;-0.12;69.64
11212;BME280;5663;50.864;12.096;2023-02-28T06:44:30;100709.03;;;-0.08;69.38
11212;BME280;5663;50.864;12.096;2023-02-28T06:47:02;100699.59;;;-0.10;69.60
11212;BME280;5663;50.864;12.096;2023-02-28T06:49:30;100723.66;;;0.04;69.60
11212;BME280;5663;50.864;12.096;2023-02-28T06:51:58;100719.44;;;0.08;69.73
11212;BME280;5663;50.864;12.096;2023-02-28T06:54:26;100725.50;;;0.16;69.65
11212;BME280;5663;50.864;12.096;2023-02-28T06:56:54;100734.97;;;0.23;70.00
11212;BME280;5663;50.864;12.096;2023-02-28T06:59:23;100729.97;;;0.31;69.65
11212;BME280;5663;50.864;12.096;2023-02-28T07:01:51;100724.84;;;0.29;70.02
11212;BME280;5663;50.864;12.096;2023-02-28T07:04:19;100737.75;;;0.38;70.25
11212;BME280;5663;50.864;12.096;2023-02-28T07:06:47;100726.66;;;0.39;70.08
11212;BME280;5663;50.864;12.096;2023-02-28T07:09:15;100634.06;;;-0.04;69.94
11212;BME280;5663;50.864;12.096;2023-02-28T07:11:42;100728.66;;;0.62;69.89
11212;BME280;5663;50.864;12.096;2023-02-28T07:14:11;100732.09;;;0.67;69.65
11212;BME280;5663;50.864;12.096;2023-02-28T07:16:40;100738.97;;;0.71;69.70
11212;BME280;5663;50.864;12.096;2023-02-28T07:19:07;100739.06;;;0.79;69.88
11212;BME280;5663;50.864;12.096;2023-02-28T07:21:35;100746.81;;;0.85;69.82
11212;BME280;5663;50.864;12.096;2023-02-28T07:24:04;100749.44;;;0.89;69.62
11212;BME280;5663;50.864;12.096;2023-02-28T07:26:34;100746.06;;;0.93;69.60
11212;BME280;5663;50.864;12.096;2023-02-28T07:29:02;100742.72;;;1.01;69.51
11212;BME280;5663;50.864;12.096;2023-02-28T07:31:30;100739.34;;;1.05;69.39
11212;BME280;5663;50.864;12.096;2023-02-28T07:33:59;100714.41;;;0.85;69.44
11212;BME280;5663;50.864;12.096;2023-02-28T07:36:28;100739.31;;;1.02;69.36
11212;BME280;5663;50.864;12.096;2023-02-28T07:39:04;100733.38;;;1.04;69.12
11212;BME280;5663;50.864;12.096;2023-02-28T07:41:49;100732.59;;;1.13;69.02
11212;BME280;5663;50.864;12.096;2023-02-28T07:44:37;100692.25;;;0.89;68.98
11212;BME280;5663;50.864;12.096;2023-02-28T07:47:08;100731.13;;;1.42;68.36
11212;BME280;5663;50.864;12.096;2023-02-28T07:49:37;100737.97;;;1.43;67.91
11212;BME280;5663;50.864;12.096;2023-02-28T07:52:06;100740.59;;;1.51;67.80
11212;BME280;5663;50.864;12.096;2023-02-28T07:54:34;100736.38;;;1.55;67.61
11212;BME280;5663;50.864;12.096;2023-02-28T07:57:02;100737.16;;;1.44;67.48
11212;BME280;5663;50.864;12.096;2023-02-28T07:59:30;100737.91;;;1.34;67.44
11212;BME280;5663;50.864;12.096;2023-02-28T08:01:58;100746.47;;;1.36;67.71
11212;BME280;5663;50.864;12.096;2023-02-28T08:04:26;100732.69;;;1.22;67.63
11212;BME280;5663;50.864;12.096;2023-02-28T08:06:55;100745.59;;;1.34;67.77
11212;BME280;5663;50.864;12.096;2023-02-28T08:09:23;100730.19;;;1.28;67.75
11212;BME280;5663;50.864;12.096;2023-02-28T08:11:51;100732.72;;;1.25;67.80
11212;BME280;5663;50.864;12.096;2023-02-28T08:14:19;100741.25;;;1.27;67.86
11212;BME280;5663;50.864;12.096;2023-02-28T08:16:46;100747.28;;;1.31;67.93
11212;BME280;5663;50.864;12.096;2023-02-28T08:19:14;100728.38;;;1.19;67.73
11212;BME280;5663;50.864;12.096;2023-02-28T08:21:42;100737.88;;;1.28;67.91
11212;BME280;5663;50.864;12.096;2023-02-28T08:24:11;100738.72;;;1.29;67.61
11212;BME280;5663;50.864;12.096;2023-02-28T08:26:39;100745.56;;;1.31;67.60
11212;BME280;5663;50.864;12.096;2023-02-28T08:29:07;100735.34;;;1.34;67.50
11212;BME280;5663;50.864;12.096;2023-02-28T08:31:35;100730.22;;;1.34;67.35
11212;BME280;5663;50.864;12.096;2023-02-28T08:34:05;100742.25;;;1.41;67.17
11212;BME280;5663;50.864;12.096;2023-02-28T08:36:33;100745.69;;;1.45;67.05
11212;BME280;5663;50.864;12.096;2023-02-28T08:39:01;100721.63;;;1.29;67.02
11212;BME280;5663;50.864;12.096;2023-02-28T08:41:30;100749.13;;;1.44;66.67
11212;BME280;5663;50.864;12.096;2023-02-28T08:43:58;100749.97;;;1.47;66.40
11212;BME280;5663;50.864;12.096;2023-02-28T08:46:26;100744.91;;;1.54;66.49
11212;BME280;5663;50.864;12.096;2023-02-28T08:48:54;100750.91;;;1.57;66.32
11212;BME280;5663;50.864;12.096;2023-02-28T08:51:25;100754.38;;;1.62;66.25
11212;BME280;5663;50.864;12.096;2023-02-28T08:53:54;100746.72;;;1.64;65.98
11212;BME280;5663;50.864;12.096;2023-02-28T08:56:23;100757.03;;;1.73;65.79
11212;BME280;5663;50.864;12.096;2023-02-28T08:58:54;100759.66;;;1.82;65.72
11212;BME280;5663;50.864;12.096;2023-02-28T09:01:24;100757.13;;;1.88;65.01
11212;BME280;5663;50.864;12.096;2023-02-28T09:03:53;100669.59;;;1.36;64.76
11212;BME280;5663;50.864;12.096;2023-02-28T09:06:23;100758.88;;;1.95;64.72
11212;BME280;5663;50.864;12.096;2023-02-28T09:08:52;100757.25;;;2.04;64.07
11212;BME280;5663;50.864;12.096;2023-02-28T09:11:19;100755.53;;;2.07;63.98
11212;BME280;5663;50.864;12.096;2023-02-28T09:13:47;100761.53;;;2.09;63.58
11212;BME280;5663;50.864;12.096;2023-02-28T09:16:25;100761.56;;;2.15;63.35
11212;BME280;5663;50.864;12.096;2023-02-28T09:19:10;100766.78;;;2.25;63.34
11212;BME280;5663;50.864;12.096;2023-02-28T09:21:39;100757.38;;;2.28;62.96
11212;BME280;5663;50.864;12.096;2023-02-28T09:24:07;100759.13;;;2.32;62.13
11212;BME280;5663;50.864;12.096;2023-02-28T09:26:37;100755.69;;;2.39;62.72
11212;BME280;5663;50.864;12.096;2023-02-28T09:29:05;100744.59;;;2.42;62.33
11212;BME280;5663;50.864;12.096;2023-02-28T09:31:34;100768.63;;;2.56;62.08
11212;BME280;5663;50.864;12.096;2023-02-28T09:34:04;100754.09;;;2.61;61.45
11212;BME280;5663;50.864;12.096;2023-02-28T09:36:32;100747.28;;;2.65;61.10
11212;BME280;5663;50.864;12.096;2023-02-28T09:39:01;100752.44;;;2.68;60.86
11212;BME280;5663;50.864;12.096;2023-02-28T09:41:36;100762.69;;;2.69;59.66
11212;BME280;5663;50.864;12.096;2023-02-28T09:44:07;100746.41;;;2.64;58.75
11212;BME280;5663;50.864;12.096;2023-02-28T09:46:45;100757.53;;;2.71;59.39
11212;BME280;5663;50.864;12.096;2023-02-28T09:49:17;100745.59;;;2.73;59.27
11212;BME280;5663;50.864;12.096;2023-02-28T09:51:51;100746.47;;;2.86;58.91
11212;BME280;5663;50.864;12.096;2023-02-28T09:54:22;100749.94;;;2.95;58.55
11212;BME280;5663;50.864;12.096;2023-02-28T09:56:51;100755.94;;;3.07;59.04
11212;BME280;5663;50.864;12.096;2023-02-28T09:59:31;100743.97;;;3.12;57.36
11212;BME280;5663;50.864;12.096;2023-02-28T10:02:15;100732.78;;;2.94;56.94
11212;BME280;5663;50.864;12.096;2023-02-28T10:04:49;100761.09;;;3.13;56.64
11212;BME280;5663;50.864;12.096;2023-02-28T10:07:33;100755.97;;;3.19;56.59
11212;BME280;5663;50.864;12.096;2023-02-28T10:12:45;100753.41;;;3.30;55.03
11212;BME280;5663;50.864;12.096;2023-02-28T10:15:15;100756.84;;;3.42;55.18
11212;BME280;5663;50.864;12.096;2023-02-28T10:17:47;100745.72;;;3.60;55.69
11212;BME280;5663;50.864;12.096;2023-02-28T10:20:19;100743.97;;;3.85;54.67
11212;BME280;5663;50.864;12.096;2023-02-28T10:22:52;100751.69;;;3.90;54.34
11212;BME280;5663;50.864;12.096;2023-02-28T10:25:24;100764.53;;;3.90;54.39
11212;BME280;5663;50.864;12.096;2023-02-28T10:27:54;100726.00;;;3.61;54.03
11212;BME280;5663;50.864;12.096;2023-02-28T10:30:27;100747.41;;;3.70;53.98
11212;BME280;5663;50.864;12.096;2023-02-28T10:32:57;100744.84;;;3.58;53.77
11212;BME280;5663;50.864;12.096;2023-02-28T10:35:25;100750.84;;;3.53;54.06
11212;BME280;5663;50.864;12.096;2023-02-28T10:37:55;100754.28;;;3.52;53.80
11212;BME280;5663;50.864;12.096;2023-02-28T10:40:30;100756.00;;;3.50;53.13
11212;BME280;5663;50.864;12.096;2023-02-28T10:43:00;100762.84;;;3.41;53.28
11212;BME280;5663;50.864;12.096;2023-02-28T10:45:30;100738.00;;;3.28;53.20
11212;BME280;5663;50.864;12.096;2023-02-28T10:48:01;100759.41;;;3.33;53.31
11212;BME280;5663;50.864;12.096;2023-02-28T10:50:37;100727.69;;;3.19;52.76
11212;BME280;5663;50.864;12.096;2023-02-28T10:53:28;100749.13;;;3.30;52.33
11212;BME280;5663;50.864;12.096;2023-02-28T10:56:00;100747.41;;;3.26;53.14
11212;BME280;5663;50.864;12.096;2023-02-28T10:58:30;100740.56;;;3.28;52.59
11212;BME280;5663;50.864;12.096;2023-02-28T11:00:59;100738.00;;;3.40;53.11
11212;BME280;5663;50.864;12.096;2023-02-28T11:03:33;100734.59;;;3.55;53.50
11212;BME280;5663;50.864;12.096;2023-02-28T11:06:06;100733.72;;;3.61;52.77
11212;BME280;5663;50.864;12.096;2023-02-28T11:08:44;100729.41;;;3.70;51.82
11212;BME280;5663;50.864;12.096;2023-02-28T11:11:13;100733.69;;;3.65;52.97
11212;BME280;5663;50.864;12.096;2023-02-28T11:13:44;100727.69;;;3.74;52.92
11212;BME280;5663;50.864;12.096;2023-02-28T11:16:14;100719.94;;;3.86;53.20
11212;BME280;5663;50.864;12.096;2023-02-28T11:18:48;100711.31;;;4.06;53.04
11212;BME280;5663;50.864;12.096;2023-02-28T11:21:22;100724.13;;;4.32;53.42
11212;BME280;5663;50.864;12.096;2023-02-28T11:23:53;100709.50;;;4.41;53.30
11212;BME280;5663;50.864;12.096;2023-02-28T11:26:39;100700.84;;;4.55;52.40
11212;BME280;5663;50.864;12.096;2023-02-28T11:29:16;100710.13;;;4.85;53.12
11212;BME280;5663;50.864;12.096;2023-02-28T11:32:05;100708.34;;;4.94;51.67
11212;BME280;5663;50.864;12.096;2023-02-28T11:34:37;100705.75;;;4.94;51.25
11212;BME280;5663;50.864;12.096;2023-02-28T11:37:11;100704.06;;;4.90;50.73
11212;BME280;5663;50.864;12.096;2023-02-28T11:39:39;100703.22;;;4.91;51.21
11212;BME280;5663;50.864;12.096;2023-02-28T11:42:21;100702.38;;;4.89;50.49
11212;BME280;5663;50.864;12.096;2023-02-28T11:45:03;100686.91;;;4.92;50.79
11212;BME280;5663;50.864;12.096;2023-02-28T11:47:40;100689.44;;;4.97;50.41
11212;BME280;5663;50.864;12.096;2023-02-28T11:50:20;100683.34;;;5.09;50.58
11212;BME280;5663;50.864;12.096;2023-02-28T11:52:51;100688.47;;;5.15;50.00
11212;BME280;5663;50.864;12.096;2023-02-28T11:55:25;100693.63;;;5.12;50.37
11212;BME280;5663;50.864;12.096;2023-02-28T11:58:06;100677.34;;;5.05;50.09
11212;BME280;5663;50.864;12.096;2023-02-28T12:00:49;100692.75;;;5.16;49.96
11212;BME280;5663;50.864;12.096;2023-02-28T12:03:39;100697.09;;;5.11;50.14
11212;BME280;5663;50.864;12.096;2023-02-28T12:06:18;100693.69;;;5.01;50.12
11212;BME280;5663;50.864;12.096;2023-02-28T12:09:08;100692.00;;;4.99;49.96
11212;BME280;5663;50.864;12.096;2023-02-28T12:11:48;100678.38;;;4.81;48.84
11212;BME280;5663;50.864;12.096;2023-02-28T12:17:39;100690.34;;;4.91;48.70
11212;BME280;5663;50.864;12.096;2023-02-28T12:20:21;100692.88;;;4.94;49.69
11212;BME280;5663;50.864;12.096;2023-02-28T12:23:01;100685.97;;;4.98;49.98
11212;BME280;5663;50.864;12.096;2023-02-28T12:25:50;100688.59;;;4.97;48.94
11212;BME280;5663;50.864;12.096;2023-02-28T12:28:25;100689.44;;;4.97;50.39
11212;BME280;5663;50.864;12.096;2023-02-28T12:30:57;100677.41;;;4.98;50.19
11212;BME280;5663;50.864;12.096;2023-02-28T12:33:32;100677.34;;;5.07;51.03
11212;BME280;5663;50.864;12.096;2023-02-28T12:36:07;100691.00;;;5.18;50.13
11212;BME280;5663;50.864;12.096;2023-02-28T12:38:42;100679.84;;;5.16;50.54
11212;BME280;5663;50.864;12.096;2023-02-28T12:41:14;100685.00;;;5.17;50.74
11212;BME280;5663;50.864;12.096;2023-02-28T12:43:46;100686.72;;;5.14;50.17
11212;BME280;5663;50.864;12.096;2023-02-28T12:46:17;100659.41;;;4.91;49.80
11212;BME280;5663;50.864;12.096;2023-02-28T12:48:52;100673.22;;;4.78;50.31
11212;BME280;5663;50.864;12.096;2023-02-28T12:51:23;100672.38;;;4.75;50.56
11212;BME280;5663;50.864;12.096;2023-02-28T12:54:04;100640.72;;;4.54;49.78
11212;BME280;5663;50.864;12.096;2023-02-28T12:56:44;100657.84;;;4.66;50.36
11212;BME280;5663;50.864;12.096;2023-02-28T12:59:22;100656.13;;;4.68;49.89
11212;BME280;5663;50.864;12.096;2023-02-28T13:02:02;100662.09;;;4.73;50.50
11212;BME280;5663;50.864;12.096;2023-02-28T13:07:59;100661.97;;;4.90;50.30
11212;BME280;5663;50.864;12.096;2023-02-28T13:10:44;100661.13;;;4.86;49.76
11212;BME280;5663;50.864;12.096;2023-02-28T13:13:17;100660.28;;;4.89;50.55
11212;BME280;5663;50.864;12.096;2023-02-28T13:16:00;100655.94;;;4.96;49.24
11212;BME280;5663;50.864;12.096;2023-02-28T13:18:31;100660.16;;;5.06;51.04
11212;BME280;5663;50.864;12.096;2023-02-28T13:21:00;100643.78;;;5.13;50.48
11212;BME280;5663;50.864;12.096;2023-02-28T13:23:40;100655.78;;;5.17;50.25
11212;BME280;5663;50.864;12.096;2023-02-28T13:29:40;100642.91;;;5.15;50.07
11212;BME280;5663;50.864;12.096;2023-02-28T13:32:41;100648.00;;;5.18;49.66
11212;BME280;5663;50.864;12.096;2023-02-28T13:38:17;100660.03;;;5.21;50.64
11212;BME280;5663;50.864;12.096;2023-02-28T13:40:48;100650.59;;;5.20;50.86
11212;BME280;5663;50.864;12.096;2023-02-28T13:43:18;100647.16;;;5.18;50.74
11212;BME280;5663;50.864;12.096;2023-02-28T13:46:09;100642.91;;;5.12;49.42
11212;BME280;5663;50.864;12.096;2023-02-28T13:48:38;100644.69;;;5.07;50.03